createdAt,value
2022-09-18T00:01:31.262Z,81.74
2022-09-18T00:04:01.941Z,81.49
2022-09-18T00:06:33.144Z,81.82
2022-09-18T00:09:02.744Z,81.41
2022-09-18T00:11:34.646Z,81.85
2022-09-18T00:14:03.282Z,82.55
2022-09-18T00:16:31.291Z,83.16
2022-09-18T00:18:59.559Z,83.12
2022-09-18T00:21:29.848Z,83.43
2022-09-18T00:24:00.682Z,83.07
2022-09-18T00:26:29.713Z,83.23
2022-09-18T00:28:59.289Z,83.86
2022-09-18T00:31:30.055Z,83.93
2022-09-18T00:33:59.237Z,82.67
2022-09-18T00:36:27.764Z,82.71
2022-09-18T00:38:55.726Z,81.98
2022-09-18T00:41:27.334Z,81.28
2022-09-18T00:43:57.056Z,80.80
2022-09-18T00:46:27.955Z,79.91
2022-09-18T00:49:05.081Z,79.27
2022-09-18T00:51:35.351Z,79.18
2022-09-18T00:54:11.191Z,78.03
2022-09-18T00:56:40.805Z,78.46
2022-09-18T00:59:09.995Z,78.24
2022-09-18T01:01:38.094Z,78.25
2022-09-18T01:04:11.802Z,78.44
2022-09-18T01:06:48.831Z,78.34
2022-09-18T01:09:28.676Z,78.44
2022-09-18T01:12:06.541Z,77.93
2022-09-18T01:14:42.256Z,77.79
2022-09-18T01:17:16.745Z,77.31
2022-09-18T01:20:03.356Z,77.60
2022-09-18T01:22:46.425Z,78.45
2022-09-18T01:25:24.582Z,77.75
2022-09-18T01:28:15.231Z,76.74
2022-09-18T01:30:45.882Z,77.01
2022-09-18T01:33:20.607Z,77.59
2022-09-18T01:35:53.765Z,78.12
2022-09-18T01:38:27.817Z,77.47
2022-09-18T01:41:01.424Z,77.20
2022-09-18T01:43:33.277Z,76.56
2022-09-18T01:46:05.057Z,76.82
2022-09-18T01:48:37.569Z,76.67
2022-09-18T01:51:10.715Z,75.33
2022-09-18T01:53:42.378Z,76.18
2022-09-18T01:56:14.585Z,75.72
2022-09-18T01:58:46.138Z,75.80
2022-09-18T02:01:18.467Z,76.50
2022-09-18T02:03:52.536Z,75.37
2022-09-18T02:06:26.530Z,76.07
2022-09-18T02:08:56.498Z,75.62
2022-09-18T02:11:24.885Z,76.18
2022-09-18T02:14:00.502Z,75.86
2022-09-18T02:16:32.933Z,76.57
2022-09-18T02:19:09.339Z,76.74
2022-09-18T02:21:38.682Z,77.02
2022-09-18T02:24:10.545Z,77.78
2022-09-18T02:26:40.698Z,78.52
2022-09-18T02:29:12.864Z,78.76
2022-09-18T02:31:41.764Z,79.35
2022-09-18T02:34:12.587Z,79.25
2022-09-18T02:37:05.101Z,79.02
2022-09-18T02:39:54.554Z,79.69
2022-09-18T02:42:34.870Z,79.97
2022-09-18T02:45:12.013Z,79.91
2022-09-18T02:47:54.872Z,79.60
2022-09-18T02:50:33.048Z,80.05
2022-09-18T02:53:07.093Z,80.10
2022-09-18T02:55:43.418Z,80.56
2022-09-18T02:58:17.029Z,80.87
2022-09-18T03:00:49.380Z,80.36
2022-09-18T03:03:18.839Z,80.77
2022-09-18T03:05:46.832Z,81.66
2022-09-18T03:08:14.705Z,81.45
2022-09-18T03:10:42.641Z,81.37
2022-09-18T03:13:10.571Z,81.26
2022-09-18T03:15:38.479Z,81.32
2022-09-18T03:18:07.776Z,80.88
2022-09-18T03:20:35.755Z,81.12
2022-09-18T03:23:03.903Z,80.26
2022-09-18T03:25:31.755Z,79.93
2022-09-18T03:27:59.660Z,80.16
2022-09-18T03:30:27.788Z,81.04
2022-09-18T03:32:55.679Z,82.43
2022-09-18T03:35:25.307Z,81.05
2022-09-18T03:37:53.892Z,81.22
2022-09-18T03:40:22.182Z,81.37
2022-09-18T03:42:50.808Z,81.12
2022-09-18T03:45:19.068Z,81.14
2022-09-18T03:47:48.730Z,80.31
2022-09-18T03:50:16.660Z,80.92
2022-09-18T03:52:50.972Z,80.41
2022-09-18T03:55:19.564Z,80.73
2022-09-18T03:57:47.493Z,80.44
2022-09-18T04:00:16.390Z,80.81
2022-09-18T04:02:44.808Z,81.88
2022-09-18T04:05:12.806Z,81.35
2022-09-18T04:07:40.655Z,81.63
2022-09-18T04:10:10.446Z,81.62
2022-09-18T04:12:38.527Z,81.98
2022-09-18T04:15:07.569Z,82.78
2022-09-18T04:17:35.413Z,81.69
2022-09-18T04:20:03.903Z,82.89
2022-09-18T04:22:31.759Z,83.00
2022-09-18T04:24:59.599Z,82.19
2022-09-18T04:27:28.930Z,82.41
2022-09-18T04:29:56.740Z,82.25
2022-09-18T04:32:24.595Z,82.04
2022-09-18T04:34:52.460Z,82.40
2022-09-18T04:37:20.273Z,82.51
2022-09-18T04:39:48.159Z,82.36
2022-09-18T04:42:16.124Z,83.60
2022-09-18T04:44:45.310Z,83.97
2022-09-18T04:47:13.217Z,82.99
2022-09-18T04:49:41.386Z,82.82
2022-09-18T04:52:09.217Z,83.99
2022-09-18T04:54:37.653Z,83.91
2022-09-18T04:57:05.973Z,84.06
2022-09-18T04:59:34.047Z,84.44
2022-09-18T05:02:03.382Z,84.82
2022-09-18T05:04:31.384Z,85.49
2022-09-18T05:06:59.252Z,85.61
2022-09-18T05:09:27.143Z,85.53
2022-09-18T05:11:55.164Z,84.78
2022-09-18T05:14:23.007Z,84.85
2022-09-18T05:16:50.841Z,84.90
2022-09-18T05:19:20.121Z,85.19
2022-09-18T05:21:50.167Z,85.01
2022-09-18T05:24:18.555Z,84.71
2022-09-18T05:26:46.588Z,84.91
2022-09-18T05:29:14.405Z,85.54
2022-09-18T05:31:42.963Z,85.87
2022-09-18T05:34:11.258Z,85.74
2022-09-18T05:36:40.416Z,85.61
2022-09-18T05:39:08.232Z,85.25
2022-09-18T05:41:36.304Z,86.51
2022-09-18T05:44:04.503Z,86.68
2022-09-18T05:46:33.243Z,86.48
2022-09-18T05:49:01.410Z,86.53
2022-09-18T05:51:29.257Z,86.93
2022-09-18T05:53:58.441Z,86.90
2022-09-18T05:56:27.337Z,86.24
2022-09-18T05:58:55.321Z,85.84
2022-09-18T06:01:23.299Z,85.86
2022-09-18T06:03:51.467Z,85.67
2022-09-18T06:06:19.435Z,85.53
2022-09-18T06:08:47.235Z,85.03
2022-09-18T06:11:16.609Z,85.92
2022-09-18T06:13:44.679Z,85.87
2022-09-18T06:16:12.471Z,85.05
2022-09-18T06:18:40.348Z,84.67
2022-09-18T06:21:08.934Z,84.38
2022-09-18T06:23:37.107Z,85.01
2022-09-18T06:26:08.584Z,85.43
2022-09-18T06:28:40.691Z,83.55
2022-09-18T06:31:08.726Z,84.72
2022-09-18T06:33:36.533Z,83.84
2022-09-18T06:36:08.458Z,83.41
2022-09-18T06:38:36.241Z,83.31
2022-09-18T06:41:04.045Z,82.58
2022-09-18T06:43:31.881Z,83.39
2022-09-18T06:46:01.082Z,84.27
2022-09-18T06:48:29.634Z,84.27
2022-09-18T06:51:00.191Z,84.94
2022-09-18T06:53:28.597Z,84.94
2022-09-18T06:56:00.307Z,85.64
2022-09-18T06:58:28.172Z,84.83
2022-09-18T07:00:56.267Z,84.73
2022-09-18T07:03:25.795Z,83.66
2022-09-18T07:05:53.689Z,83.60
2022-09-18T07:08:21.644Z,83.74
2022-09-18T07:10:49.589Z,82.85
2022-09-18T07:13:17.461Z,82.67
2022-09-18T07:15:48.541Z,81.68
2022-09-18T07:18:16.624Z,81.44
2022-09-18T07:20:45.838Z,80.39
2022-09-18T07:23:14.210Z,79.89
2022-09-18T07:25:42.181Z,78.98
2022-09-18T07:28:12.320Z,80.34
2022-09-18T07:30:40.752Z,79.96
2022-09-18T07:33:10.841Z,76.04
2022-09-18T07:35:38.704Z,69.80
2022-09-18T07:38:09.134Z,67.07
2022-09-18T07:40:37.784Z,69.60
2022-09-18T07:43:07.648Z,71.70
2022-09-18T07:45:36.113Z,64.09
2022-09-18T07:48:05.283Z,60.99
2022-09-18T07:50:33.248Z,56.61
2022-09-18T07:53:03.693Z,54.02
2022-09-18T07:55:36.030Z,52.41
2022-09-18T07:58:07.203Z,51.66
2022-09-18T08:00:37.904Z,52.42
2022-09-18T08:03:07.852Z,52.31
2022-09-18T08:05:36.428Z,50.87
2022-09-18T08:08:05.236Z,46.35
2022-09-18T08:10:35.730Z,44.72
2022-09-18T08:13:03.936Z,45.97
2022-09-18T08:15:32.490Z,49.79
2022-09-18T08:18:00.300Z,51.55
2022-09-18T08:20:28.315Z,51.19
2022-09-18T08:22:56.129Z,51.63
2022-09-18T08:25:23.950Z,51.33
2022-09-18T08:27:53.242Z,48.24
2022-09-18T08:30:21.303Z,45.16
2022-09-18T08:32:49.238Z,43.21
2022-09-18T08:35:17.252Z,42.19
2022-09-18T08:37:49.048Z,41.12
2022-09-18T08:40:19.857Z,46.12
2022-09-18T08:43:06.587Z,48.78
2022-09-18T08:45:51.865Z,53.55
2022-09-18T08:48:25.555Z,57.76
2022-09-18T08:50:58.278Z,59.89
2022-09-18T08:53:31.596Z,60.85
2022-09-18T08:56:01.692Z,63.83
2022-09-18T08:58:38.764Z,55.41
2022-09-18T09:01:10.479Z,51.81
2022-09-18T09:03:50.393Z,48.90
2022-09-18T09:06:31.475Z,49.51
2022-09-18T09:09:21.046Z,54.96
2022-09-18T09:11:59.960Z,54.85
2022-09-18T09:14:56.050Z,56.55
2022-09-18T09:17:39.639Z,58.61
2022-09-18T09:20:19.675Z,56.51
2022-09-18T09:22:56.923Z,55.70
2022-09-18T09:25:32.181Z,55.92
2022-09-18T09:28:04.536Z,55.97
2022-09-18T09:30:36.311Z,55.17
2022-09-18T09:33:16.106Z,54.26
2022-09-18T09:35:47.138Z,56.08
2022-09-18T09:38:39.328Z,56.18
2022-09-18T09:41:20.410Z,56.54
2022-09-18T09:43:57.321Z,57.58
2022-09-18T09:46:45.692Z,57.46
2022-09-18T09:49:19.023Z,59.58
2022-09-18T09:51:57.813Z,59.62
2022-09-18T09:54:26.127Z,58.88
2022-09-18T09:57:03.976Z,58.73
2022-09-18T09:59:39.883Z,58.75
2022-09-18T10:02:35.241Z,58.04
2022-09-18T10:05:14.933Z,59.75
2022-09-18T10:07:49.576Z,59.49
2022-09-18T10:10:24.696Z,59.92
2022-09-18T10:12:55.942Z,60.93
2022-09-18T10:15:36.345Z,62.15
2022-09-18T10:18:11.466Z,62.35
2022-09-18T10:20:44.493Z,62.63
2022-09-18T10:23:18.317Z,61.36
2022-09-18T10:25:51.258Z,61.08
2022-09-18T10:28:19.221Z,60.48
2022-09-18T10:30:55.235Z,59.49
2022-09-18T10:33:43.451Z,58.85
2022-09-18T10:36:19.562Z,57.71
2022-09-18T10:38:48.028Z,58.15
2022-09-18T10:41:30.245Z,57.59
2022-09-18T10:44:02.684Z,57.84
2022-09-18T10:46:33.175Z,59.43
2022-09-18T10:49:05.964Z,61.26
2022-09-18T10:51:33.921Z,63.00
2022-09-18T10:54:15.511Z,67.64
2022-09-18T10:56:43.407Z,73.03
2022-09-18T10:59:24.503Z,73.07
2022-09-18T11:01:57.523Z,75.31
2022-09-18T11:04:27.924Z,76.47
2022-09-18T11:06:59.080Z,76.14
2022-09-18T11:09:32.676Z,74.68
2022-09-18T11:12:01.091Z,74.66
2022-09-18T11:14:34.255Z,75.33
2022-09-18T11:17:03.446Z,72.20
2022-09-18T11:19:35.190Z,73.14
2022-09-18T11:22:06.709Z,71.75
2022-09-18T11:24:37.014Z,73.64
2022-09-18T11:27:20.399Z,70.97
2022-09-18T11:29:48.335Z,71.13
2022-09-18T11:32:21.562Z,70.74
2022-09-18T11:34:53.797Z,69.37
2022-09-18T11:37:29.507Z,67.70
2022-09-18T11:40:01.973Z,68.45
2022-09-18T11:42:31.663Z,66.45
2022-09-18T11:45:18.862Z,65.30
2022-09-18T11:47:52.439Z,64.99
2022-09-18T11:50:24.742Z,61.62
2022-09-18T11:52:55.752Z,60.00
2022-09-18T11:55:30.993Z,58.71
2022-09-18T11:58:02.839Z,59.70
2022-09-18T12:00:37.584Z,63.98
2022-09-18T12:03:17.043Z,66.84
2022-09-18T12:05:54.193Z,67.56
2022-09-18T12:08:28.324Z,70.13
2022-09-18T12:11:07.236Z,71.36
2022-09-18T12:13:52.778Z,70.47
2022-09-18T12:16:29.024Z,70.65
2022-09-18T12:19:03.712Z,70.26
2022-09-18T12:21:43.780Z,69.80
2022-09-18T12:24:15.098Z,69.02
2022-09-18T12:26:52.291Z,68.91
2022-09-18T12:29:36.159Z,69.38
2022-09-18T12:32:15.773Z,67.94
2022-09-18T12:34:51.608Z,68.80
2022-09-18T12:37:36.369Z,66.74
2022-09-18T12:40:40.110Z,66.30
2022-09-18T12:43:35.223Z,66.44
2022-09-18T12:46:29.153Z,66.42
2022-09-18T12:49:21.454Z,66.82
2022-09-18T12:51:53.556Z,66.09
2022-09-18T12:54:41.776Z,66.03
2022-09-18T12:57:40.628Z,67.23
2022-09-18T13:00:11.685Z,67.47
2022-09-18T13:02:51.090Z,69.00
2022-09-18T13:05:25.128Z,71.76
2022-09-18T13:07:59.927Z,73.42
2022-09-18T13:10:34.943Z,71.67
2022-09-18T13:13:08.110Z,72.39
2022-09-18T13:15:41.610Z,71.58
2022-09-18T13:18:20.834Z,70.62
2022-09-18T13:20:48.941Z,69.77
2022-09-18T13:23:21.632Z,67.94
2022-09-18T13:25:53.133Z,68.00
2022-09-18T13:28:23.434Z,67.73
2022-09-18T13:31:32.627Z,69.10
2022-09-18T13:34:04.338Z,70.08
2022-09-18T13:36:38.202Z,70.12
2022-09-18T13:39:16.968Z,70.29
2022-09-18T13:41:49.411Z,70.04
2022-09-18T13:44:21.416Z,70.40
2022-09-18T13:46:51.101Z,71.18
2022-09-18T13:49:28.892Z,71.28
2022-09-18T13:51:57.148Z,71.63
2022-09-18T13:54:30.283Z,72.54
2022-09-18T13:57:22.057Z,72.36
2022-09-18T13:59:55.795Z,73.00
2022-09-18T14:02:36.056Z,73.64
2022-09-18T14:05:34.137Z,73.55
2022-09-18T14:08:15.682Z,74.80
2022-09-18T14:11:16.336Z,77.32
2022-09-18T14:13:51.788Z,77.67
2022-09-18T14:16:34.484Z,79.44
2022-09-18T14:19:16.811Z,79.76
2022-09-18T14:21:45.982Z,79.66
2022-09-18T14:24:55.119Z,78.08
2022-09-18T14:27:53.615Z,78.84
2022-09-18T14:30:29.151Z,78.37
2022-09-18T14:33:18.070Z,78.86
2022-09-18T14:35:56.288Z,78.09
2022-09-18T14:38:33.351Z,77.27
2022-09-18T14:41:11.743Z,77.65
2022-09-18T14:43:41.182Z,77.39
2022-09-18T14:46:19.546Z,77.47
2022-09-18T14:48:47.715Z,77.08
2022-09-18T14:51:21.197Z,77.98
2022-09-18T14:53:51.162Z,77.25
2022-09-18T14:56:24.232Z,77.22
2022-09-18T14:58:52.599Z,77.37
2022-09-18T15:01:26.464Z,76.82
2022-09-18T15:03:56.560Z,76.12
2022-09-18T15:06:29.364Z,75.84
2022-09-18T15:08:58.801Z,76.26
2022-09-18T15:11:41.676Z,77.07
2022-09-18T15:14:22.429Z,73.88
2022-09-18T15:16:59.398Z,71.90
2022-09-18T15:19:28.567Z,71.90
2022-09-18T15:21:57.122Z,70.61
2022-09-18T15:24:25.866Z,69.63
2022-09-18T15:26:57.015Z,70.40
2022-09-18T15:29:29.094Z,71.79
2022-09-18T15:31:59.349Z,73.89
2022-09-18T15:34:30.283Z,74.25
2022-09-18T15:37:01.376Z,74.53
2022-09-18T15:39:35.400Z,75.03
2022-09-18T15:42:26.948Z,75.62
2022-09-18T15:45:21.531Z,75.73
2022-09-18T15:47:53.895Z,76.37
2022-09-18T15:50:37.283Z,77.21
2022-09-18T15:53:17.091Z,79.24
2022-09-18T15:55:54.141Z,78.79
2022-09-18T15:58:37.196Z,78.75
2022-09-18T16:01:07.663Z,79.62
2022-09-18T16:03:38.687Z,80.28
2022-09-18T16:06:08.581Z,79.48
2022-09-18T16:08:38.943Z,80.38
2022-09-18T16:11:08.140Z,80.54
2022-09-18T16:13:39.653Z,79.57
2022-09-18T16:16:24.943Z,79.09
2022-09-18T16:18:57.370Z,78.32
2022-09-18T16:21:29.334Z,77.37
2022-09-18T16:24:01.234Z,77.91
2022-09-18T16:26:31.815Z,78.10
2022-09-18T16:29:02.395Z,77.53
2022-09-18T16:31:32.324Z,77.88
2022-09-18T16:34:03.413Z,78.04
2022-09-18T16:36:34.165Z,78.01
2022-09-18T16:39:03.933Z,77.97
2022-09-18T16:41:32.879Z,77.69
2022-09-18T16:44:01.173Z,77.62
2022-09-18T16:46:35.259Z,77.22
2022-09-18T16:49:05.050Z,76.75
2022-09-18T16:51:33.465Z,77.74
2022-09-18T16:54:01.488Z,78.04
2022-09-18T16:56:38.854Z,78.06
2022-09-18T16:59:07.608Z,78.44
2022-09-18T17:01:54.190Z,78.42
2022-09-18T17:04:27.759Z,78.73
2022-09-18T17:06:56.056Z,79.10
2022-09-18T17:09:24.123Z,80.68
2022-09-18T17:11:52.453Z,80.46
2022-09-18T17:14:20.521Z,80.21
2022-09-18T17:16:48.353Z,81.27
2022-09-18T17:19:16.334Z,80.91
2022-09-18T17:21:45.945Z,80.55
2022-09-18T17:24:14.071Z,80.37
2022-09-18T17:26:42.934Z,80.31
2022-09-18T17:29:12.219Z,80.63
2022-09-18T17:31:40.323Z,80.57
2022-09-18T17:34:08.398Z,81.50
2022-09-18T17:36:36.884Z,80.94
2022-09-18T17:39:06.199Z,81.23
2022-09-18T17:41:34.917Z,81.21
2022-09-18T17:44:03.334Z,81.58
2022-09-18T17:46:31.291Z,82.39
2022-09-18T17:49:00.661Z,82.78
2022-09-18T17:51:29.433Z,82.71
2022-09-18T17:54:00.095Z,82.46
2022-09-18T17:56:30.879Z,82.49
2022-09-18T17:59:00.390Z,82.48
2022-09-18T18:01:29.787Z,82.55
2022-09-18T18:03:57.740Z,82.49
2022-09-18T18:06:26.108Z,82.62
2022-09-18T18:08:54.123Z,83.17
2022-09-18T18:11:25.260Z,84.14
2022-09-18T18:13:56.215Z,84.59
2022-09-18T18:16:27.501Z,84.55
2022-09-18T18:18:56.917Z,84.99
2022-09-18T18:21:25.957Z,85.89
2022-09-18T18:23:57.110Z,86.55
2022-09-18T18:26:24.950Z,86.58
2022-09-18T18:28:55.489Z,86.63
2022-09-18T18:31:25.689Z,87.02
2022-09-18T18:33:55.593Z,87.43
2022-09-18T18:36:25.689Z,87.78
2022-09-18T18:38:55.985Z,88.15
2022-09-18T18:41:25.609Z,88.15
2022-09-18T18:43:56.413Z,88.17
2022-09-18T18:46:26.255Z,89.13
2022-09-18T18:49:00.013Z,89.63
2022-09-18T18:51:27.952Z,90.13
2022-09-18T18:53:57.024Z,90.10
2022-09-18T18:56:25.087Z,90.51
2022-09-18T18:58:58.628Z,89.96
2022-09-18T19:01:26.735Z,90.86
2022-09-18T19:03:56.367Z,90.59
2022-09-18T19:06:26.525Z,90.73
2022-09-18T19:08:58.446Z,91.26
2022-09-18T19:11:27.214Z,91.22
2022-09-18T19:13:57.824Z,91.35
2022-09-18T19:16:27.109Z,91.69
2022-09-18T19:18:56.476Z,91.22
2022-09-18T19:21:24.365Z,91.50
2022-09-18T19:23:53.474Z,91.89
2022-09-18T19:26:22.210Z,92.13
2022-09-18T19:28:51.713Z,91.69
2022-09-18T19:31:21.719Z,91.24
2022-09-18T19:33:52.334Z,90.64
2022-09-18T19:36:21.407Z,90.89
2022-09-18T19:38:52.432Z,90.46
2022-09-18T19:41:24.262Z,90.76
2022-09-18T19:43:53.295Z,90.47
2022-09-18T19:46:26.114Z,90.92
2022-09-18T19:48:55.056Z,91.06
2022-09-18T19:51:23.575Z,90.40
2022-09-18T19:53:51.944Z,90.26
2022-09-18T19:56:41.621Z,90.48
2022-09-18T19:59:07.706Z,90.82
2022-09-18T20:01:37.106Z,90.52
2022-09-18T20:04:05.138Z,91.72
2022-09-18T20:06:33.297Z,91.36
2022-09-18T20:09:02.260Z,91.62
2022-09-18T20:11:30.094Z,91.69
2022-09-18T20:13:59.560Z,91.43
2022-09-18T20:16:27.670Z,91.65
2022-09-18T20:18:56.971Z,92.42
2022-09-18T20:21:24.802Z,91.99
2022-09-18T20:23:58.182Z,92.18
2022-09-18T20:26:26.966Z,93.13
2022-09-18T20:28:54.735Z,92.94
2022-09-18T20:31:23.947Z,92.88
2022-09-18T20:33:56.514Z,92.45
2022-09-18T20:36:25.819Z,92.39
2022-09-18T20:39:03.421Z,92.19
2022-09-18T20:41:31.968Z,92.84
2022-09-18T20:44:05.148Z,92.97
2022-09-18T20:46:37.246Z,92.45
2022-09-18T20:49:07.875Z,92.15
2022-09-18T20:51:36.375Z,93.34
2022-09-18T20:54:08.389Z,93.25
2022-09-18T20:56:41.423Z,93.00
2022-09-18T20:59:10.927Z,92.83
2022-09-18T21:01:41.625Z,93.24
2022-09-18T21:04:17.342Z,93.54
2022-09-18T21:06:47.337Z,93.68
2022-09-18T21:09:16.070Z,93.86
2022-09-18T21:11:45.004Z,93.46
2022-09-18T21:14:15.735Z,93.47
2022-09-18T21:16:43.976Z,93.89
2022-09-18T21:19:16.158Z,94.01
2022-09-18T21:21:44.253Z,93.99
2022-09-18T21:24:12.391Z,94.84
2022-09-18T21:26:41.887Z,94.65
2022-09-18T21:29:12.724Z,95.06
2022-09-18T21:31:43.477Z,94.63
2022-09-18T21:34:15.566Z,94.75
2022-09-18T21:36:45.423Z,95.99
2022-09-18T21:39:14.845Z,95.92
2022-09-18T21:41:46.527Z,95.44
2022-09-18T21:44:15.799Z,95.85
2022-09-18T21:46:45.938Z,96.33
2022-09-18T21:49:16.495Z,95.89
2022-09-18T21:51:44.907Z,96.79
2022-09-18T21:54:15.666Z,97.10
2022-09-18T21:56:44.318Z,97.28
2022-09-18T21:59:14.464Z,97.91
2022-09-18T22:01:43.413Z,97.90
2022-09-18T22:04:13.114Z,98.14
2022-09-18T22:06:44.987Z,97.85
2022-09-18T22:09:14.994Z,97.88
2022-09-18T22:11:44.733Z,97.79
2022-09-18T22:14:14.773Z,98.34
2022-09-18T22:16:45.355Z,98.69
2022-09-18T22:19:13.894Z,98.79
2022-09-18T22:21:44.648Z,97.97
2022-09-18T22:24:15.832Z,98.26
2022-09-18T22:26:45.760Z,98.23
2022-09-18T22:29:16.843Z,98.24
2022-09-18T22:31:46.698Z,98.46
2022-09-18T22:34:17.379Z,98.50
2022-09-18T22:36:47.402Z,98.42
2022-09-18T22:39:16.357Z,98.36
2022-09-18T22:41:45.217Z,97.80
2022-09-18T22:44:13.586Z,97.90
2022-09-18T22:46:42.985Z,97.45
2022-09-18T22:49:13.645Z,97.86
2022-09-18T22:51:41.983Z,97.88
2022-09-18T22:54:11.589Z,97.99
2022-09-18T22:56:40.632Z,97.93
2022-09-18T22:59:08.682Z,97.47
2022-09-18T23:01:39.286Z,97.01
2022-09-18T23:04:07.280Z,97.96
2022-09-18T23:06:35.644Z,97.57
2022-09-18T23:09:04.687Z,97.43
2022-09-18T23:11:35.318Z,97.21
2022-09-18T23:14:05.427Z,96.98
2022-09-18T23:16:34.794Z,97.10
2022-09-18T23:19:04.748Z,96.45
2022-09-18T23:21:35.664Z,96.63
2022-09-18T23:24:09.150Z,96.96
2022-09-18T23:26:40.947Z,96.82
2022-09-18T23:29:10.889Z,96.47
2022-09-18T23:31:41.432Z,96.66
2022-09-18T23:34:13.393Z,95.75
2022-09-18T23:36:43.188Z,95.49
2022-09-18T23:39:13.921Z,94.67
2022-09-18T23:41:44.187Z,95.96
2022-09-18T23:44:15.566Z,95.02
2022-09-18T23:46:45.209Z,94.89
2022-09-18T23:49:14.260Z,95.56
2022-09-18T23:51:43.862Z,95.80
2022-09-18T23:54:16.592Z,95.70
2022-09-18T23:56:46.692Z,95.61
2022-09-18T23:59:17.780Z,95.43
